Lago Vista, Texas
Current Conditions -  °F | °C
As of 2:35 AM on Friday 28 Nov 2014 (Local Time) from KRYW Reporting Station
Clear Clear  
Wind Chill: 50°   Ceiling: Unl
Heat Index: 50°   Visibility: 10mi
Dew Point: 30°   Wind: 6mph
Humidity: 45%   Direction: 200°SSW
Pressure: 30.34"   Gusts: NA
Location:  30.4521°N, 97.9683°W
Report Text: KRYW 280835Z AUTO 20005KT 10SM CLR 10/M01 A3034 RMK AO2 T01011013
Loading
Personal Weather Stations






























Interactive Weather Map New forecast layout! Learn more

10-Day Weather Forecast

Advertisements
Track Severe Weather on mobile